sensor_id;sensor_type;location;lat;lon;timestamp;pressure;altitude;pressure_sealevel;temperature;humidity
78014;BME280;67222;50.182;8.734;2023-05-10T04:30:30;99855.50;;;12.74;91.74
78014;BME280;67222;50.182;8.734;2023-05-10T04:32:55;99838.88;;;12.72;90.83
78014;BME280;67222;50.182;8.734;2023-05-10T04:35:21;99855.88;;;12.66;91.01
78014;BME280;67222;50.182;8.734;2023-05-10T04:37:46;99859.22;;;12.73;91.42
78014;BME280;67222;50.182;8.734;2023-05-10T04:40:12;99862.59;;;12.81;91.74
78014;BME280;67222;50.182;8.734;2023-05-10T04:42:39;99866.69;;;12.83;90.47
78014;BME280;67222;50.182;8.734;2023-05-10T04:45:06;99859.69;;;12.94;91.10
78014;BME280;67222;50.182;8.734;2023-05-10T04:47:32;99860.88;;;12.86;90.20
78014;BME280;67222;50.182;8.734;2023-05-10T04:49:57;99872.13;;;13.00;90.76
78014;BME280;67222;50.182;8.734;2023-05-10T04:52:23;99878.22;;;12.84;90.54
78014;BME280;67222;50.182;8.734;2023-05-10T04:54:48;99881.59;;;13.02;90.68
78014;BME280;67222;50.182;8.734;2023-05-10T04:57:14;99878.69;;;13.04;90.16
78014;BME280;67222;50.182;8.734;2023-05-10T04:59:39;99874.47;;;13.08;89.72
78014;BME280;67222;50.182;8.734;2023-05-10T05:02:04;99885.53;;;12.88;89.90
78014;BME280;67222;50.182;8.734;2023-05-10T05:04:30;99884.72;;;12.99;90.38
78014;BME280;67222;50.182;8.734;2023-05-10T05:06:56;99882.41;;;13.03;90.50
78014;BME280;67222;50.182;8.734;2023-05-10T05:09:21;99884.72;;;13.11;90.24
78014;BME280;67222;50.182;8.734;2023-05-10T05:11:46;99879.94;;;13.13;90.81
78014;BME280;67222;50.182;8.734;2023-05-10T05:14:11;99879.25;;;13.18;90.08
78014;BME280;67222;50.182;8.734;2023-05-10T05:16:37;99892.28;;;13.14;90.23
78014;BME280;67222;50.182;8.734;2023-05-10T05:19:02;99882.75;;;12.95;89.01
78014;BME280;67222;50.182;8.734;2023-05-10T05:21:27;99894.25;;;12.95;90.48
78014;BME280;67222;50.182;8.734;2023-05-10T05:23:53;99892.41;;;12.96;89.73
78014;BME280;67222;50.182;8.734;2023-05-10T05:26:19;99896.47;;;12.98;90.65
78014;BME280;67222;50.182;8.734;2023-05-10T05:28:44;99898.91;;;13.12;90.18
78014;BME280;67222;50.182;8.734;2023-05-10T05:31:09;99899.44;;;13.20;90.51
78014;BME280;67222;50.182;8.734;2023-05-10T05:33:35;99898.38;;;13.21;89.60
78014;BME280;67222;50.182;8.734;2023-05-10T05:36:02;99906.16;;;13.23;89.74
78014;BME280;67222;50.182;8.734;2023-05-10T05:38:27;99904.31;;;13.23;89.57
78014;BME280;67222;50.182;8.734;2023-05-10T05:40:53;99906.28;;;13.28;89.55
78014;BME280;67222;50.182;8.734;2023-05-10T05:43:18;99906.50;;;13.26;89.31
78014;BME280;67222;50.182;8.734;2023-05-10T05:45:43;99902.88;;;13.32;90.08
78014;BME280;67222;50.182;8.734;2023-05-10T05:48:08;99903.84;;;13.26;89.32
78014;BME280;67222;50.182;8.734;2023-05-10T05:50:34;99901.50;;;13.18;89.09
78014;BME280;67222;50.182;8.734;2023-05-10T05:52:59;99905.22;;;13.29;89.83
78014;BME280;67222;50.182;8.734;2023-05-10T05:55:24;99914.88;;;13.30;89.95
78014;BME280;67222;50.182;8.734;2023-05-10T05:57:51;99909.53;;;13.18;89.50
78014;BME280;67222;50.182;8.734;2023-05-10T06:00:16;99911.97;;;13.08;89.62
78014;BME280;67222;50.182;8.734;2023-05-10T06:02:42;99912.22;;;13.30;90.14
78014;BME280;67222;50.182;8.734;2023-05-10T06:05:07;99911.41;;;13.41;89.64
78014;BME280;67222;50.182;8.734;2023-05-10T06:07:33;99921.88;;;13.31;88.87
78014;BME280;67222;50.182;8.734;2023-05-10T06:09:58;99918.47;;;13.36;89.38
78014;BME280;67222;50.182;8.734;2023-05-10T06:12:24;99925.22;;;13.38;89.30
78014;BME280;67222;50.182;8.734;2023-05-10T06:14:49;99925.72;;;13.35;88.47
78014;BME280;67222;50.182;8.734;2023-05-10T06:17:14;99928.97;;;13.25;88.29
78014;BME280;67222;50.182;8.734;2023-05-10T06:19:40;99935.13;;;13.14;88.96
78014;BME280;67222;50.182;8.734;2023-05-10T06:22:05;99927.78;;;13.10;88.78
78014;BME280;67222;50.182;8.734;2023-05-10T06:24:30;99933.53;;;13.25;89.62
78014;BME280;67222;50.182;8.734;2023-05-10T06:26:56;99930.97;;;13.30;89.11
78014;BME280;67222;50.182;8.734;2023-05-10T06:29:21;99933.06;;;13.40;89.23
78014;BME280;67222;50.182;8.734;2023-05-10T06:31:46;99936.66;;;13.33;88.72
78014;BME280;67222;50.182;8.734;2023-05-10T06:34:12;99939.00;;;13.42;88.95
78014;BME280;67222;50.182;8.734;2023-05-10T06:36:38;99945.41;;;13.41;88.48
78014;BME280;67222;50.182;8.734;2023-05-10T06:39:04;99942.78;;;13.11;88.41
78014;BME280;67222;50.182;8.734;2023-05-10T06:41:29;99950.59;;;13.12;88.98
78014;BME280;67222;50.182;8.734;2023-05-10T06:43:54;99948.31;;;13.27;89.76
78014;BME280;67222;50.182;8.734;2023-05-10T06:46:19;99950.38;;;13.37;89.19
78014;BME280;67222;50.182;8.734;2023-05-10T06:48:45;99954.34;;;13.34;89.25
78014;BME280;67222;50.182;8.734;2023-05-10T06:51:10;99943.06;;;13.44;89.12
78014;BME280;67222;50.182;8.734;2023-05-10T06:53:35;99951.44;;;13.48;88.93
78014;BME280;67222;50.182;8.734;2023-05-10T06:56:01;99951.78;;;13.51;88.71
78014;BME280;67222;50.182;8.734;2023-05-10T06:58:28;99957.47;;;13.67;87.71
78014;BME280;67222;50.182;8.734;2023-05-10T07:00:53;99957.72;;;13.65;86.85
78014;BME280;67222;50.182;8.734;2023-05-10T07:03:18;99955.38;;;13.69;88.36
78014;BME280;67222;50.182;8.734;2023-05-10T07:05:44;99961.88;;;13.73;87.40
78014;BME280;67222;50.182;8.734;2023-05-10T07:08:09;99965.59;;;13.83;88.43
78014;BME280;67222;50.182;8.734;2023-05-10T07:10:34;99959.56;;;13.76;87.17
78014;BME280;67222;50.182;8.734;2023-05-10T07:12:59;99964.06;;;13.99;86.85
78014;BME280;67222;50.182;8.734;2023-05-10T07:15:26;99970.25;;;14.00;85.07
78014;BME280;67222;50.182;8.734;2023-05-10T07:17:51;99968.91;;;14.14;86.83
78014;BME280;67222;50.182;8.734;2023-05-10T07:20:17;99973.34;;;14.08;85.88
78014;BME280;67222;50.182;8.734;2023-05-10T07:22:43;99979.34;;;13.99;86.31
78014;BME280;67222;50.182;8.734;2023-05-10T07:25:08;99973.16;;;13.86;84.65
78014;BME280;67222;50.182;8.734;2023-05-10T07:27:33;99978.53;;;13.98;86.35
78014;BME280;67222;50.182;8.734;2023-05-10T07:29:59;99985.97;;;13.96;85.31
78014;BME280;67222;50.182;8.734;2023-05-10T07:32:25;99988.75;;;14.01;85.65
78014;BME280;67222;50.182;8.734;2023-05-10T07:34:50;99972.81;;;13.94;84.76
78014;BME280;67222;50.182;8.734;2023-05-10T07:37:16;99982.38;;;13.90;84.79
78014;BME280;67222;50.182;8.734;2023-05-10T07:39:41;99984.56;;;14.05;85.50
78014;BME280;67222;50.182;8.734;2023-05-10T07:42:06;99985.38;;;14.06;85.90
78014;BME280;67222;50.182;8.734;2023-05-10T07:44:32;99986.81;;;13.97;85.67
78014;BME280;67222;50.182;8.734;2023-05-10T07:46:57;99986.66;;;14.03;85.04
78014;BME280;67222;50.182;8.734;2023-05-10T07:49:22;99984.69;;;13.99;86.30
78014;BME280;67222;50.182;8.734;2023-05-10T07:51:50;99992.69;;;14.10;86.12
78014;BME280;67222;50.182;8.734;2023-05-10T07:54:16;99993.06;;;14.14;85.33
78014;BME280;67222;50.182;8.734;2023-05-10T07:56:42;99996.19;;;14.11;85.10
78014;BME280;67222;50.182;8.734;2023-05-10T07:59:15;99997.84;;;14.00;84.21
78014;BME280;67222;50.182;8.734;2023-05-10T08:01:41;99999.97;;;13.98;84.80
78014;BME280;67222;50.182;8.734;2023-05-10T08:04:06;100004.50;;;13.98;85.65
78014;BME280;67222;50.182;8.734;2023-05-10T08:06:32;100004.38;;;14.04;85.21
78014;BME280;67222;50.182;8.734;2023-05-10T08:08:57;100005.53;;;14.08;83.97
78014;BME280;67222;50.182;8.734;2023-05-10T08:11:23;100001.84;;;14.26;84.82
78014;BME280;67222;50.182;8.734;2023-05-10T08:13:49;100004.44;;;14.21;82.25
78014;BME280;67222;50.182;8.734;2023-05-10T08:16:15;99997.72;;;14.47;85.26
78014;BME280;67222;50.182;8.734;2023-05-10T08:18:40;100004.28;;;14.68;82.40
78014;BME280;67222;50.182;8.734;2023-05-10T08:21:06;100004.81;;;14.81;83.08
78014;BME280;67222;50.182;8.734;2023-05-10T08:23:31;100006.47;;;14.99;82.45
78014;BME280;67222;50.182;8.734;2023-05-10T08:25:57;100006.47;;;14.99;82.52
78014;BME280;67222;50.182;8.734;2023-05-10T08:28:22;100007.44;;;14.93;82.42
78014;BME280;67222;50.182;8.734;2023-05-10T08:30:49;100007.69;;;14.63;81.27
78014;BME280;67222;50.182;8.734;2023-05-10T08:33:15;100011.75;;;14.66;80.54
78014;BME280;67222;50.182;8.734;2023-05-10T08:35:40;100009.13;;;14.82;80.89
78014;BME280;67222;50.182;8.734;2023-05-10T08:38:06;100008.34;;;14.99;81.42
78014;BME280;67222;50.182;8.734;2023-05-10T08:40:31;100018.09;;;14.88;81.40
78014;BME280;67222;50.182;8.734;2023-05-10T08:43:05;100017.44;;;14.98;80.61
78014;BME280;67222;50.182;8.734;2023-05-10T08:45:33;100025.81;;;15.01;80.92
78014;BME280;67222;50.182;8.734;2023-05-10T08:48:02;100021.91;;;14.92;79.14
78014;BME280;67222;50.182;8.734;2023-05-10T08:50:27;100015.19;;;15.06;80.73
78014;BME280;67222;50.182;8.734;2023-05-10T08:52:55;100017.53;;;15.20;79.08
78014;BME280;67222;50.182;8.734;2023-05-10T08:55:23;100022.91;;;15.20;78.08
78014;BME280;67222;50.182;8.734;2023-05-10T08:57:49;100026.03;;;15.28;78.99
78014;BME280;67222;50.182;8.734;2023-05-10T09:00:15;100026.16;;;15.22;78.29
78014;BME280;67222;50.182;8.734;2023-05-10T09:02:41;100021.44;;;15.12;78.81
78014;BME280;67222;50.182;8.734;2023-05-10T09:05:08;100027.38;;;15.14;80.10
78014;BME280;67222;50.182;8.734;2023-05-10T09:07:35;100028.38;;;15.08;79.54
78014;BME280;67222;50.182;8.734;2023-05-10T09:10:00;100031.44;;;15.00;80.08
78014;BME280;67222;50.182;8.734;2023-05-10T09:12:26;100036.53;;;14.84;80.06
78014;BME280;67222;50.182;8.734;2023-05-10T09:14:52;100031.56;;;14.76;78.71
78014;BME280;67222;50.182;8.734;2023-05-10T09:17:19;100049.53;;;14.76;80.44
78014;BME280;67222;50.182;8.734;2023-05-10T09:19:45;100046.91;;;14.64;81.41
78014;BME280;67222;50.182;8.734;2023-05-10T09:22:10;100059.97;;;14.61;82.22
78014;BME280;67222;50.182;8.734;2023-05-10T09:24:36;100054.53;;;14.56;84.09
78014;BME280;67222;50.182;8.734;2023-05-10T09:27:07;100059.69;;;14.45;84.69
78014;BME280;67222;50.182;8.734;2023-05-10T09:29:42;100071.59;;;14.26;86.39
78014;BME280;67222;50.182;8.734;2023-05-10T09:32:08;100064.94;;;14.29;86.50
78014;BME280;67222;50.182;8.734;2023-05-10T09:34:33;100065.06;;;14.22;87.49
78014;BME280;67222;50.182;8.734;2023-05-10T09:37:01;100059.63;;;14.17;87.16
78014;BME280;67222;50.182;8.734;2023-05-10T09:39:38;100058.66;;;14.23;87.04
78014;BME280;67222;50.182;8.734;2023-05-10T09:42:05;100061.56;;;14.21;87.30
78014;BME280;67222;50.182;8.734;2023-05-10T09:44:32;100058.56;;;14.18;86.30
78014;BME280;67222;50.182;8.734;2023-05-10T09:46:58;100056.31;;;14.27;86.61
78014;BME280;67222;50.182;8.734;2023-05-10T09:49:23;100060.28;;;14.36;85.15
78014;BME280;67222;50.182;8.734;2023-05-10T09:52:05;100065.63;;;14.47;87.12
78014;BME280;67222;50.182;8.734;2023-05-10T09:54:32;100053.56;;;14.62;86.25
78014;BME280;67222;50.182;8.734;2023-05-10T09:56:57;100066.56;;;14.53;85.88
78014;BME280;67222;50.182;8.734;2023-05-10T09:59:25;100059.72;;;14.74;85.32
78014;BME280;67222;50.182;8.734;2023-05-10T10:01:53;100059.50;;;14.92;85.93
78014;BME280;67222;50.182;8.734;2023-05-10T10:04:19;100061.06;;;15.05;84.68
78014;BME280;67222;50.182;8.734;2023-05-10T10:06:45;100051.66;;;15.36;84.86
78014;BME280;67222;50.182;8.734;2023-05-10T10:09:10;100054.19;;;15.76;82.62
78014;BME280;67222;50.182;8.734;2023-05-10T10:11:37;100054.16;;;15.93;83.07
78014;BME280;67222;50.182;8.734;2023-05-10T10:14:03;100060.50;;;16.03;81.81
78014;BME280;67222;50.182;8.734;2023-05-10T10:16:29;100066.19;;;16.07;83.33
78014;BME280;67222;50.182;8.734;2023-05-10T10:18:55;100056.44;;;16.23;81.17
78014;BME280;67222;50.182;8.734;2023-05-10T10:21:22;100063.19;;;16.25;78.71
78014;BME280;67222;50.182;8.734;2023-05-10T10:23:47;100050.38;;;16.32;79.86
78014;BME280;67222;50.182;8.734;2023-05-10T10:26:13;100050.50;;;16.43;79.47
78014;BME280;67222;50.182;8.734;2023-05-10T10:31:34;100052.84;;;16.17;78.81
78014;BME280;67222;50.182;8.734;2023-05-10T10:34:05;100047.16;;;15.92;79.14
78014;BME280;67222;50.182;8.734;2023-05-10T10:36:39;100044.91;;;15.67;79.74
78014;BME280;67222;50.182;8.734;2023-05-10T10:39:09;100053.13;;;15.77;81.08
78014;BME280;67222;50.182;8.734;2023-05-10T10:41:36;100055.81;;;15.77;80.17
78014;BME280;67222;50.182;8.734;2023-05-10T10:49:26;100061.09;;;15.89;81.08
78014;BME280;67222;50.182;8.734;2023-05-10T10:54:39;100058.22;;;15.95;79.15
78014;BME280;67222;50.182;8.734;2023-05-10T10:57:12;100064.28;;;15.86;80.74
78014;BME280;67222;50.182;8.734;2023-05-10T10:59:42;100060.69;;;15.80;79.98
78014;BME280;67222;50.182;8.734;2023-05-10T11:02:33;100078.47;;;15.64;80.33
78014;BME280;67222;50.182;8.734;2023-05-10T11:04:59;100070.69;;;15.34;79.04
78014;BME280;67222;50.182;8.734;2023-05-10T11:07:26;100075.84;;;15.36;79.93
78014;BME280;67222;50.182;8.734;2023-05-10T11:09:51;100076.25;;;15.28;79.09
78014;BME280;67222;50.182;8.734;2023-05-10T11:12:17;100086.75;;;15.29;81.12
78014;BME280;67222;50.182;8.734;2023-05-10T11:14:42;100085.94;;;15.00;79.03
78014;BME280;67222;50.182;8.734;2023-05-10T11:17:26;100076.28;;;14.71;80.91
78014;BME280;67222;50.182;8.734;2023-05-10T11:20:14;100092.31;;;14.42;81.28
78014;BME280;67222;50.182;8.734;2023-05-10T11:22:49;100090.81;;;14.46;83.62
78014;BME280;67222;50.182;8.734;2023-05-10T11:25:16;100083.94;;;14.27;82.38
78014;BME280;67222;50.182;8.734;2023-05-10T11:27:41;100084.06;;;14.32;83.66
78014;BME280;67222;50.182;8.734;2023-05-10T11:30:08;100084.41;;;14.36;84.36
78014;BME280;67222;50.182;8.734;2023-05-10T11:32:39;100086.50;;;14.45;85.06
78014;BME280;67222;50.182;8.734;2023-05-10T11:35:09;100090.22;;;14.56;86.52
78014;BME280;67222;50.182;8.734;2023-05-10T11:37:35;100089.84;;;14.64;85.11
78014;BME280;67222;50.182;8.734;2023-05-10T11:40:00;100095.59;;;14.84;83.75
78014;BME280;67222;50.182;8.734;2023-05-10T11:42:27;100092.00;;;15.07;85.17
78014;BME280;67222;50.182;8.734;2023-05-10T11:44:53;100094.03;;;15.17;82.78
78014;BME280;67222;50.182;8.734;2023-05-10T11:47:18;100081.13;;;15.31;82.44
78014;BME280;67222;50.182;8.734;2023-05-10T11:49:44;100091.22;;;15.57;82.07
78014;BME280;67222;50.182;8.734;2023-05-10T11:52:10;100091.22;;;15.57;78.37
78014;BME280;67222;50.182;8.734;2023-05-10T11:54:36;100091.91;;;15.64;81.06
78014;BME280;67222;50.182;8.734;2023-05-10T11:57:02;100092.50;;;15.66;80.66
78014;BME280;67222;50.182;8.734;2023-05-10T11:59:28;100091.72;;;15.88;81.82
78014;BME280;67222;50.182;8.734;2023-05-10T12:01:53;100098.72;;;16.05;80.90
78014;BME280;67222;50.182;8.734;2023-05-10T12:04:19;100098.31;;;15.97;77.97
78014;BME280;67222;50.182;8.734;2023-05-10T12:06:45;100103.66;;;16.14;79.13
78014;BME280;67222;50.182;8.734;2023-05-10T12:09:11;100101.72;;;16.09;78.16
78014;BME280;67222;50.182;8.734;2023-05-10T12:11:38;100101.91;;;16.02;79.63
78014;BME280;67222;50.182;8.734;2023-05-10T12:14:05;100098.66;;;16.00;78.59
78014;BME280;67222;50.182;8.734;2023-05-10T12:16:30;100109.75;;;15.87;77.69
78014;BME280;67222;50.182;8.734;2023-05-10T12:18:57;100098.97;;;15.87;77.33
78014;BME280;67222;50.182;8.734;2023-05-10T12:21:23;100109.50;;;15.89;80.78
78014;BME280;67222;50.182;8.734;2023-05-10T12:23:54;100115.13;;;15.87;80.69
78014;BME280;67222;50.182;8.734;2023-05-10T12:26:24;100105.81;;;15.78;79.49
78014;BME280;67222;50.182;8.734;2023-05-10T12:28:52;100115.13;;;15.70;80.12
78014;BME280;67222;50.182;8.734;2023-05-10T12:31:17;100117.41;;;15.62;78.71
78014;BME280;67222;50.182;8.734;2023-05-10T12:33:44;100113.00;;;15.72;80.42
78014;BME280;67222;50.182;8.734;2023-05-10T12:36:14;100108.75;;;15.77;79.92
78014;BME280;67222;50.182;8.734;2023-05-10T12:38:41;100116.06;;;15.98;80.10
78014;BME280;67222;50.182;8.734;2023-05-10T12:41:15;100114.88;;;16.27;79.14
78014;BME280;67222;50.182;8.734;2023-05-10T12:43:41;100117.47;;;16.61;78.94
78014;BME280;67222;50.182;8.734;2023-05-10T12:46:11;100115.28;;;16.58;78.13
78014;BME280;67222;50.182;8.734;2023-05-10T12:48:38;100105.81;;;16.33;77.85
78014;BME280;67222;50.182;8.734;2023-05-10T12:51:05;100114.91;;;16.49;77.55
78014;BME280;67222;50.182;8.734;2023-05-10T12:53:33;100117.03;;;16.69;78.11
78014;BME280;67222;50.182;8.734;2023-05-10T12:55:59;100108.03;;;16.80;74.81
78014;BME280;67222;50.182;8.734;2023-05-10T12:58:24;100112.78;;;16.95;74.56
78014;BME280;67222;50.182;8.734;2023-05-10T13:00:49;100117.44;;;17.05;74.11
78014;BME280;67222;50.182;8.734;2023-05-10T13:03:16;100109.56;;;16.98;74.08
78014;BME280;67222;50.182;8.734;2023-05-10T13:05:41;100114.25;;;17.08;75.74
78014;BME280;67222;50.182;8.734;2023-05-10T13:08:07;100113.22;;;16.87;75.79
78014;BME280;67222;50.182;8.734;2023-05-10T13:10:32;100112.31;;;17.94;74.70
78014;BME280;67222;50.182;8.734;2023-05-10T13:12:58;100110.66;;;18.35;73.95
78014;BME280;67222;50.182;8.734;2023-05-10T13:15:24;100110.69;;;19.33;66.25
78014;BME280;67222;50.182;8.734;2023-05-10T13:17:49;100106.84;;;20.46;63.75
78014;BME280;67222;50.182;8.734;2023-05-10T13:20:15;100101.81;;;21.28;54.03
78014;BME280;67222;50.182;8.734;2023-05-10T13:22:41;100102.41;;;21.54;58.35
78014;BME280;67222;50.182;8.734;2023-05-10T13:25:07;100097.53;;;21.85;53.62
78014;BME280;67222;50.182;8.734;2023-05-10T13:27:33;100097.34;;;21.03;53.13
78014;BME280;67222;50.182;8.734;2023-05-10T13:29:58;100102.09;;;19.67;57.02
78014;BME280;67222;50.182;8.734;2023-05-10T13:32:24;100101.22;;;19.05;61.71
78014;BME280;67222;50.182;8.734;2023-05-10T13:34:50;100115.69;;;18.69;66.66
78014;BME280;67222;50.182;8.734;2023-05-10T13:37:16;100107.94;;;18.25;64.22
78014;BME280;67222;50.182;8.734;2023-05-10T13:39:41;100099.63;;;17.95;64.77
78014;BME280;67222;50.182;8.734;2023-05-10T13:42:06;100112.03;;;17.91;64.20
78014;BME280;67222;50.182;8.734;2023-05-10T13:44:32;100115.13;;;18.14;64.23
78014;BME280;67222;50.182;8.734;2023-05-10T13:46:58;100114.34;;;18.66;63.05
78014;BME280;67222;50.182;8.734;2023-05-10T13:49:24;100113.69;;;19.27;59.33
78014;BME280;67222;50.182;8.734;2023-05-10T13:51:49;100117.22;;;19.48;56.28
78014;BME280;67222;50.182;8.734;2023-05-10T13:54:14;100107.22;;;19.63;55.15
78014;BME280;67222;50.182;8.734;2023-05-10T13:56:41;100108.59;;;19.56;54.10
78014;BME280;67222;50.182;8.734;2023-05-10T13:59:07;100117.53;;;19.56;57.55
78014;BME280;67222;50.182;8.734;2023-05-10T14:01:33;100104.19;;;20.06;56.36
78014;BME280;67222;50.182;8.734;2023-05-10T14:03:58;100110.16;;;20.08;56.68
78014;BME280;67222;50.182;8.734;2023-05-10T14:06:23;100102.34;;;19.96;55.77
78014;BME280;67222;50.182;8.734;2023-05-10T14:08:49;100112.09;;;19.36;56.51
78014;BME280;67222;50.182;8.734;2023-05-10T14:11:14;100104.69;;;18.86;56.26
78014;BME280;67222;50.182;8.734;2023-05-10T14:13:39;100100.59;;;18.73;56.98
78014;BME280;67222;50.182;8.734;2023-05-10T14:16:05;100103.81;;;18.65;59.54
78014;BME280;67222;50.182;8.734;2023-05-10T14:18:30;100100.91;;;18.87;60.83
78014;BME280;67222;50.182;8.734;2023-05-10T14:20:56;100102.03;;;19.01;57.19
78014;BME280;67222;50.182;8.734;2023-05-10T14:23:22;100105.25;;;19.03;56.65
78014;BME280;67222;50.182;8.734;2023-05-10T14:25:52;100099.59;;;18.99;55.45
78014;BME280;67222;50.182;8.734;2023-05-10T14:28:17;100099.22;;;18.70;54.27
78014;BME280;67222;50.182;8.734;2023-05-10T14:30:43;100096.25;;;18.67;55.15
78014;BME280;67222;50.182;8.734;2023-05-10T14:33:10;100099.13;;;18.55;55.19
78014;BME280;67222;50.182;8.734;2023-05-10T14:35:35;100087.47;;;18.39;53.79
78014;BME280;67222;50.182;8.734;2023-05-10T14:38:02;100095.09;;;18.58;56.28
78014;BME280;67222;50.182;8.734;2023-05-10T14:40:28;100106.25;;;18.66;56.69
78014;BME280;67222;50.182;8.734;2023-05-10T14:42:53;100094.47;;;18.40;55.95
78014;BME280;67222;50.182;8.734;2023-05-10T14:45:19;100099.66;;;18.42;53.23
78014;BME280;67222;50.182;8.734;2023-05-10T14:47:45;100098.41;;;18.70;56.00
78014;BME280;67222;50.182;8.734;2023-05-10T14:50:10;100092.47;;;18.63;55.32
78014;BME280;67222;50.182;8.734;2023-05-10T14:52:36;100087.25;;;18.51;53.69
78014;BME280;67222;50.182;8.734;2023-05-10T14:55:01;100085.88;;;18.49;53.91
78014;BME280;67222;50.182;8.734;2023-05-10T14:57:27;100096.13;;;18.41;53.53
78014;BME280;67222;50.182;8.734;2023-05-10T14:59:55;100087.53;;;18.55;55.91
78014;BME280;67222;50.182;8.734;2023-05-10T15:02:20;100081.59;;;18.58;52.59
78014;BME280;67222;50.182;8.734;2023-05-10T15:05:02;100081.69;;;18.73;52.03
78014;BME280;67222;50.182;8.734;2023-05-10T15:07:27;100085.41;;;18.62;52.30
78014;BME280;67222;50.182;8.734;2023-05-10T15:09:52;100084.25;;;18.42;55.05
78014;BME280;67222;50.182;8.734;2023-05-10T15:12:19;100072.41;;;18.54;55.84
78014;BME280;67222;50.182;8.734;2023-05-10T15:14:44;100082.47;;;18.73;55.56
78014;BME280;67222;50.182;8.734;2023-05-10T15:17:10;100080.50;;;18.59;54.88
78014;BME280;67222;50.182;8.734;2023-05-10T15:19:35;100084.09;;;18.69;52.43
78014;BME280;67222;50.182;8.734;2023-05-10T15:22:01;100078.69;;;18.69;54.02
78014;BME280;67222;50.182;8.734;2023-05-10T15:24:27;100081.19;;;18.86;55.78
78014;BME280;67222;50.182;8.734;2023-05-10T15:26:52;100080.91;;;18.83;53.31
78014;BME280;67222;50.182;8.734;2023-05-10T15:29:18;100083.56;;;18.72;52.82
78014;BME280;67222;50.182;8.734;2023-05-10T15:31:49;100081.94;;;18.76;53.65
78014;BME280;67222;50.182;8.734;2023-05-10T15:34:15;100087.28;;;18.61;54.05
78014;BME280;67222;50.182;8.734;2023-05-10T15:36:41;100093.47;;;18.57;55.26
78014;BME280;67222;50.182;8.734;2023-05-10T15:39:06;100097.53;;;18.59;55.73
78014;BME280;67222;50.182;8.734;2023-05-10T15:41:31;100094.25;;;18.47;55.70
78014;BME280;67222;50.182;8.734;2023-05-10T15:43:58;100102.84;;;18.39;54.70
78014;BME280;67222;50.182;8.734;2023-05-10T15:46:25;100098.03;;;18.46;55.29
78014;BME280;67222;50.182;8.734;2023-05-10T15:48:50;100107.78;;;18.57;54.95
78014;BME280;67222;50.182;8.734;2023-05-10T15:51:15;100110.47;;;18.57;57.40
78014;BME280;67222;50.182;8.734;2023-05-10T15:53:41;100113.41;;;18.45;53.27
78014;BME280;67222;50.182;8.734;2023-05-10T15:56:06;100103.66;;;18.39;55.00
78014;BME280;67222;50.182;8.734;2023-05-10T15:58:32;100119.56;;;18.36;57.44
78014;BME280;67222;50.182;8.734;2023-05-10T16:00:57;100127.91;;;18.24;59.14
78014;BME280;67222;50.182;8.734;2023-05-10T16:03:23;100117.72;;;17.94;58.07
78014;BME280;67222;50.182;8.734;2023-05-10T16:05:48;100116.09;;;17.93;59.00
78014;BME280;67222;50.182;8.734;2023-05-10T16:08:13;100117.63;;;17.84;58.17
78014;BME280;67222;50.182;8.734;2023-05-10T16:10:38;100120.28;;;17.79;59.03
78014;BME280;67222;50.182;8.734;2023-05-10T16:13:04;100124.56;;;17.43;59.99
78014;BME280;67222;50.182;8.734;2023-05-10T16:15:30;100126.53;;;17.52;60.69
78014;BME280;67222;50.182;8.734;2023-05-10T16:17:55;100134.06;;;17.50;66.92
78014;BME280;67222;50.182;8.734;2023-05-10T16:20:20;100122.22;;;17.51;68.71
78014;BME280;67222;50.182;8.734;2023-05-10T16:22:45;100126.94;;;17.39;67.54
78014;BME280;67222;50.182;8.734;2023-05-10T16:25:11;100133.41;;;17.38;67.29
78014;BME280;67222;50.182;8.734;2023-05-10T16:27:36;100129.16;;;17.47;69.85
78014;BME280;67222;50.182;8.734;2023-05-10T16:30:02;100134.97;;;17.61;71.58
78014;BME280;67222;50.182;8.734;2023-05-10T16:32:27;100134.06;;;17.50;69.88
78014;BME280;67222;50.182;8.734;2023-05-10T16:34:53;100132.47;;;17.54;70.51
78014;BME280;67222;50.182;8.734;2023-05-10T16:37:18;100140.56;;;17.54;70.73
78014;BME280;67222;50.182;8.734;2023-05-10T16:39:43;100141.66;;;17.53;70.70
78014;BME280;67222;50.182;8.734;2023-05-10T16:42:09;100139.34;;;17.40;69.66
78014;BME280;67222;50.182;8.734;2023-05-10T16:44:34;100140.91;;;17.31;70.43
78014;BME280;67222;50.182;8.734;2023-05-10T16:47:00;100135.03;;;17.39;71.42
78014;BME280;67222;50.182;8.734;2023-05-10T16:49:27;100144.19;;;17.38;72.36
78014;BME280;67222;50.182;8.734;2023-05-10T16:51:52;100145.78;;;17.34;70.67
78014;BME280;67222;50.182;8.734;2023-05-10T16:54:17;100138.13;;;17.26;70.11
78014;BME280;67222;50.182;8.734;2023-05-10T16:56:44;100138.69;;;17.28;72.46
78014;BME280;67222;50.182;8.734;2023-05-10T16:59:09;100151.09;;;17.29;73.59
78014;BME280;67222;50.182;8.734;2023-05-10T17:01:34;100145.72;;;17.29;73.32
78014;BME280;67222;50.182;8.734;2023-05-10T17:04:00;100146.78;;;17.28;73.71
78014;BME280;67222;50.182;8.734;2023-05-10T17:06:25;100143.22;;;17.22;73.26
78014;BME280;67222;50.182;8.734;2023-05-10T17:08:50;100145.66;;;17.24;73.99
78014;BME280;67222;50.182;8.734;2023-05-10T17:11:16;100148.19;;;16.82;70.40
78014;BME280;67222;50.182;8.734;2023-05-10T17:13:43;100153.69;;;16.92;72.99
78014;BME280;67222;50.182;8.734;2023-05-10T17:16:09;100151.50;;;16.67;70.83
78014;BME280;67222;50.182;8.734;2023-05-10T17:18:34;100149.72;;;16.56;70.20
78014;BME280;67222;50.182;8.734;2023-05-10T17:21:00;100153.28;;;16.61;71.06
78014;BME280;67222;50.182;8.734;2023-05-10T17:23:26;100147.41;;;16.64;72.71
78014;BME280;67222;50.182;8.734;2023-05-10T17:25:51;100154.34;;;16.60;73.67
78014;BME280;67222;50.182;8.734;2023-05-10T17:28:16;100153.53;;;16.38;71.83